createdAt,value
2023-03-02T00:02:06.815Z,3.53
2023-03-02T00:04:51.127Z,3.04
2023-03-02T00:07:31.662Z,2.73
2023-03-02T00:10:02.026Z,2.70
2023-03-02T00:12:34.492Z,2.86
2023-03-02T00:15:06.742Z,2.85
2023-03-02T00:17:35.587Z,2.85
2023-03-02T00:20:12.120Z,2.73
2023-03-02T00:22:48.588Z,2.61
2023-03-02T00:25:18.099Z,2.57
2023-03-02T00:27:49.507Z,2.61
2023-03-02T00:30:19.308Z,2.66
2023-03-02T00:32:49.459Z,2.63
2023-03-02T00:35:19.451Z,2.59
2023-03-02T00:37:48.643Z,2.69
2023-03-02T00:40:20.780Z,2.87
2023-03-02T00:42:49.753Z,3.02
2023-03-02T00:45:20.509Z,3.21
2023-03-02T00:47:49.846Z,3.31
2023-03-02T00:50:21.622Z,3.42
2023-03-02T00:52:52.843Z,3.52
2023-03-02T00:55:23.634Z,3.48
2023-03-02T00:57:55.667Z,3.49
2023-03-02T01:00:32.218Z,3.41
2023-03-02T01:03:06.381Z,3.18
2023-03-02T01:05:38.131Z,2.98
2023-03-02T01:08:07.064Z,2.73
2023-03-02T01:10:39.512Z,2.76
2023-03-02T01:13:08.672Z,2.83
2023-03-02T01:15:38.307Z,3.05
2023-03-02T01:18:07.730Z,3.12
2023-03-02T01:20:36.909Z,3.20
2023-03-02T01:23:06.476Z,3.21
2023-03-02T01:25:35.160Z,3.17
2023-03-02T01:28:03.881Z,3.07
2023-03-02T01:30:37.031Z,2.99
2023-03-02T01:33:05.637Z,2.94
2023-03-02T01:35:34.279Z,2.92
2023-03-02T01:38:06.047Z,3.00
2023-03-02T01:40:34.639Z,2.93
2023-03-02T01:43:04.970Z,2.90
2023-03-02T01:46:03.602Z,2.85
2023-03-02T01:48:49.002Z,2.88
2023-03-02T01:51:25.905Z,2.70
2023-03-02T01:54:02.115Z,2.49
2023-03-02T01:56:35.085Z,2.49
2023-03-02T01:59:11.522Z,2.62
2023-03-02T02:01:43.267Z,2.73
2023-03-02T02:04:13.526Z,2.79
2023-03-02T02:06:51.350Z,2.88
2023-03-02T02:09:23.162Z,2.99
2023-03-02T02:11:52.506Z,3.16
2023-03-02T02:14:21.582Z,3.01
2023-03-02T02:16:51.909Z,2.97
2023-03-02T02:19:59.018Z,2.89
2023-03-02T02:23:04.926Z,2.79
2023-03-02T02:25:58.448Z,2.91
2023-03-02T02:28:57.915Z,2.95
2023-03-02T02:31:51.477Z,3.02
2023-03-02T02:34:23.111Z,3.07
2023-03-02T02:36:58.339Z,3.02
2023-03-02T02:39:35.440Z,3.01
2023-03-02T02:42:08.072Z,3.02
2023-03-02T02:44:36.839Z,3.09
2023-03-02T02:47:16.418Z,3.11
2023-03-02T02:49:48.047Z,3.25
2023-03-02T02:52:19.794Z,3.27
2023-03-02T02:54:52.256Z,3.27
2023-03-02T02:57:24.778Z,3.21
2023-03-02T02:59:57.544Z,3.29
2023-03-02T03:02:33.337Z,3.39
2023-03-02T03:05:05.683Z,3.39
2023-03-02T03:07:36.037Z,3.40
2023-03-02T03:10:40.308Z,3.35
2023-03-02T03:13:11.824Z,3.22
2023-03-02T03:15:40.584Z,3.20
2023-03-02T03:18:09.704Z,3.18
2023-03-02T03:20:38.358Z,3.28
2023-03-02T03:23:06.907Z,3.41
2023-03-02T03:25:36.060Z,3.44
2023-03-02T03:28:05.583Z,3.32
2023-03-02T03:30:34.433Z,3.41
2023-03-02T03:33:03.441Z,3.50
2023-03-02T03:35:32.046Z,3.48
2023-03-02T03:38:00.937Z,3.53
2023-03-02T03:40:29.502Z,3.63
2023-03-02T03:42:58.195Z,3.57
2023-03-02T03:45:28.808Z,3.51
2023-03-02T03:47:58.518Z,3.59
2023-03-02T03:50:27.715Z,3.59
2023-03-02T03:52:56.357Z,3.59
2023-03-02T03:55:29.307Z,3.68
2023-03-02T03:57:58.182Z,3.67
2023-03-02T04:00:26.944Z,3.66
2023-03-02T04:02:58.203Z,3.69
2023-03-02T04:05:31.274Z,3.66
2023-03-02T04:08:02.453Z,3.65
2023-03-02T04:10:32.060Z,3.64
2023-03-02T04:13:00.926Z,3.59
2023-03-02T04:15:29.558Z,3.60
2023-03-02T04:18:01.000Z,3.64
2023-03-02T04:20:31.867Z,3.43
2023-03-02T04:23:01.090Z,3.19
2023-03-02T04:25:30.703Z,3.21
2023-03-02T04:28:08.125Z,3.06
2023-03-02T04:30:39.545Z,2.99
2023-03-02T04:33:08.987Z,3.02
2023-03-02T04:35:37.886Z,3.01
2023-03-02T04:38:06.623Z,2.93
2023-03-02T04:40:35.479Z,3.07
2023-03-02T04:43:03.972Z,3.13
2023-03-02T04:45:32.867Z,3.11
2023-03-02T04:48:01.341Z,3.09
2023-03-02T04:50:29.964Z,2.71
2023-03-02T04:52:58.487Z,2.40
2023-03-02T04:55:27.882Z,2.35
2023-03-02T04:57:56.360Z,2.13
2023-03-02T05:00:25.469Z,2.15
2023-03-02T05:02:54.005Z,2.23
2023-03-02T05:05:25.082Z,2.34
2023-03-02T05:07:53.952Z,2.51
2023-03-02T05:10:23.850Z,2.48
2023-03-02T05:12:58.756Z,2.47
2023-03-02T05:15:39.383Z,2.53
2023-03-02T05:18:11.196Z,2.70
2023-03-02T05:20:40.303Z,2.84
2023-03-02T05:23:11.115Z,2.76
2023-03-02T05:25:39.631Z,2.84
2023-03-02T05:28:08.196Z,2.82
2023-03-02T05:30:38.108Z,2.68
2023-03-02T05:33:06.893Z,2.75
2023-03-02T05:35:35.637Z,2.92
2023-03-02T05:38:05.373Z,2.96
2023-03-02T05:40:34.402Z,2.95
2023-03-02T05:43:03.201Z,2.95
2023-03-02T05:45:35.326Z,3.02
2023-03-02T05:48:05.410Z,3.21
2023-03-02T05:50:36.048Z,3.18
2023-03-02T05:53:05.506Z,3.40
2023-03-02T05:55:37.448Z,3.40
2023-03-02T05:58:17.543Z,3.51
2023-03-02T06:00:48.200Z,3.33
2023-03-02T06:03:17.436Z,3.26
2023-03-02T06:05:51.064Z,3.38
2023-03-02T06:08:21.743Z,3.44
2023-03-02T06:10:51.110Z,3.45
2023-03-02T06:13:19.567Z,3.27
2023-03-02T06:15:48.113Z,3.29
2023-03-02T06:18:17.084Z,3.65
2023-03-02T06:20:45.611Z,3.55
2023-03-02T06:23:14.197Z,3.60
2023-03-02T06:25:48.410Z,3.72
2023-03-02T06:28:19.990Z,3.93
2023-03-02T06:30:49.254Z,4.07
2023-03-02T06:33:21.455Z,4.28
2023-03-02T06:35:50.593Z,4.28
2023-03-02T06:38:19.240Z,4.18
2023-03-02T06:40:47.846Z,3.96
2023-03-02T06:43:16.492Z,3.89
2023-03-02T06:45:46.148Z,3.71
2023-03-02T06:48:14.698Z,3.74
2023-03-02T06:50:43.305Z,3.67
2023-03-02T06:53:11.804Z,3.84
2023-03-02T06:55:40.299Z,3.83
2023-03-02T06:58:13.344Z,3.96
2023-03-02T07:00:41.843Z,3.97
2023-03-02T07:03:10.408Z,3.98
2023-03-02T07:05:39.104Z,3.71
2023-03-02T07:08:07.709Z,3.75
2023-03-02T07:10:37.745Z,3.97
2023-03-02T07:13:08.737Z,4.17
2023-03-02T07:15:40.142Z,4.39
2023-03-02T07:18:08.773Z,4.56
2023-03-02T07:20:38.441Z,4.60
2023-03-02T07:23:06.997Z,4.80
2023-03-02T07:25:37.169Z,4.73
2023-03-02T07:28:06.610Z,4.76
2023-03-02T07:30:35.208Z,4.83
2023-03-02T07:33:03.912Z,4.99
2023-03-02T07:35:33.088Z,4.96
2023-03-02T07:38:02.100Z,4.84
2023-03-02T07:40:30.613Z,4.62
2023-03-02T07:42:59.140Z,4.65
2023-03-02T07:45:27.632Z,4.66
2023-03-02T07:47:56.462Z,4.91
2023-03-02T07:50:25.061Z,4.70
2023-03-02T07:52:54.064Z,4.74
2023-03-02T07:55:22.623Z,4.85
2023-03-02T07:57:51.408Z,4.70
2023-03-02T08:00:21.739Z,4.61
2023-03-02T08:02:50.766Z,4.73
2023-03-02T08:05:19.780Z,4.88
2023-03-02T08:07:51.380Z,5.13
2023-03-02T08:10:20.035Z,5.20
2023-03-02T08:12:48.938Z,5.10
2023-03-02T08:15:18.441Z,5.19
2023-03-02T08:17:47.115Z,5.37
2023-03-02T08:20:15.785Z,5.53
2023-03-02T08:22:45.529Z,5.63
2023-03-02T08:25:14.034Z,5.46
2023-03-02T08:27:43.899Z,5.57
2023-03-02T08:30:13.980Z,5.48
2023-03-02T08:32:44.293Z,5.63
2023-03-02T08:35:13.134Z,5.54
2023-03-02T08:37:41.856Z,5.47
2023-03-02T08:40:11.252Z,5.51
2023-03-02T08:42:42.054Z,5.46
2023-03-02T08:45:12.544Z,5.81
2023-03-02T08:47:42.155Z,5.79
2023-03-02T08:50:12.373Z,5.61
2023-03-02T08:52:42.351Z,5.61
2023-03-02T08:55:11.217Z,5.70
2023-03-02T08:57:41.882Z,5.70
2023-03-02T09:00:15.346Z,5.82
2023-03-02T09:02:46.865Z,6.08
2023-03-02T09:05:18.262Z,6.20
2023-03-02T09:07:48.463Z,6.31
2023-03-02T09:10:19.880Z,6.42
2023-03-02T09:12:52.676Z,6.69
2023-03-02T09:15:22.316Z,6.49
2023-03-02T09:17:55.609Z,6.40
2023-03-02T09:20:26.257Z,6.45
2023-03-02T09:22:58.152Z,6.71
2023-03-02T09:25:28.665Z,6.93
2023-03-02T09:28:00.384Z,6.84
2023-03-02T09:30:34.472Z,6.47
2023-03-02T09:33:08.360Z,6.68
2023-03-02T09:35:43.253Z,6.95
2023-03-02T09:38:41.507Z,6.67
2023-03-02T09:42:05.361Z,6.36
2023-03-02T09:45:16.801Z,6.15
2023-03-02T09:48:45.179Z,6.07
2023-03-02T09:52:44.062Z,6.39
2023-03-02T09:55:36.896Z,6.49
2023-03-02T09:58:17.924Z,6.72
2023-03-02T10:01:17.262Z,6.89
2023-03-02T10:04:03.264Z,6.98
2023-03-02T10:06:35.167Z,7.01
2023-03-02T10:09:20.134Z,7.14
2023-03-02T10:12:41.699Z,6.62
2023-03-02T10:15:30.055Z,6.93
2023-03-02T10:18:48.662Z,7.23
2023-03-02T10:21:42.444Z,7.38
2023-03-02T10:24:37.889Z,7.60
2023-03-02T10:27:30.949Z,7.84
2023-03-02T10:30:33.085Z,7.51
2023-03-02T10:33:18.465Z,7.11
2023-03-02T10:36:42.783Z,6.62
2023-03-02T10:39:24.257Z,6.87
2023-03-02T10:42:59.391Z,7.02
2023-03-02T10:45:37.134Z,7.31
2023-03-02T10:49:06.918Z,7.62
2023-03-02T10:53:01.057Z,7.53
2023-03-02T10:56:02.149Z,7.69
2023-03-02T10:58:45.910Z,7.84
2023-03-02T11:02:08.017Z,7.68
2023-03-02T11:06:19.475Z,7.24
2023-03-02T11:09:58.593Z,7.48
2023-03-02T11:14:14.262Z,7.40
2023-03-02T11:18:21.562Z,7.40
2023-03-02T11:22:13.393Z,7.60
2023-03-02T11:26:13.063Z,7.52
2023-03-02T11:30:41.216Z,7.26
2023-03-02T11:34:49.432Z,7.37
2023-03-02T11:38:22.126Z,7.46
2023-03-02T11:42:04.663Z,7.54
2023-03-02T11:45:45.979Z,7.37
2023-03-02T11:49:09.206Z,7.53
2023-03-02T11:52:28.147Z,7.15
2023-03-02T11:56:33.767Z,7.17
2023-03-02T12:00:18.380Z,7.19
2023-03-02T12:03:57.770Z,7.24
2023-03-02T12:07:28.609Z,7.05
2023-03-02T12:11:11.316Z,6.86
2023-03-02T12:15:25.932Z,6.84
2023-03-02T12:18:57.845Z,7.13
2023-03-02T12:22:30.001Z,7.43
2023-03-02T12:26:22.056Z,7.38
2023-03-02T12:29:48.480Z,7.46
2023-03-02T12:33:30.025Z,7.04
2023-03-02T12:40:34.664Z,7.32
2023-03-02T12:44:12.128Z,7.10
2023-03-02T12:47:01.056Z,7.08
2023-03-02T12:50:32.112Z,6.74
2023-03-02T12:53:39.017Z,7.35
2023-03-02T12:56:52.611Z,7.42
2023-03-02T12:59:32.399Z,7.62
2023-03-02T13:02:56.919Z,7.64
2023-03-02T13:05:57.907Z,7.99
2023-03-02T13:09:06.688Z,8.02
2023-03-02T13:12:20.755Z,7.71
2023-03-02T13:15:21.056Z,8.03
2023-03-02T13:19:23.974Z,8.18
2023-03-02T13:22:42.953Z,8.36
2023-03-02T13:25:48.887Z,8.35
2023-03-02T13:40:34.114Z,7.81
2023-03-02T14:06:11.592Z,8.01
2023-03-02T14:09:17.852Z,7.91
2023-03-02T14:16:50.354Z,7.56
2023-03-02T14:20:03.717Z,7.97
2023-03-02T14:33:57.360Z,7.87
2023-03-02T14:40:41.022Z,7.43
2023-03-02T14:43:52.868Z,7.84
2023-03-02T14:56:53.162Z,8.38
2023-03-02T15:03:01.234Z,8.42
2023-03-02T15:09:58.676Z,8.40
2023-03-02T15:19:32.262Z,7.85
2023-03-02T15:22:27.589Z,7.66
2023-03-02T15:25:35.893Z,7.66
2023-03-02T15:28:34.224Z,7.19
2023-03-02T15:31:26.170Z,7.17
2023-03-02T15:34:58.439Z,7.36
2023-03-02T15:38:17.681Z,7.30
2023-03-02T15:41:34.690Z,7.09
2023-03-02T15:44:35.489Z,7.10
2023-03-02T15:47:13.313Z,7.15
2023-03-02T15:50:15.053Z,7.21
2023-03-02T15:52:54.502Z,7.51
2023-03-02T15:55:35.512Z,7.36
2023-03-02T15:58:11.027Z,7.12
2023-03-02T16:00:48.099Z,7.08
2023-03-02T16:03:26.854Z,6.96
2023-03-02T16:06:07.365Z,6.85
2023-03-02T16:08:38.785Z,7.05
2023-03-02T16:11:30.973Z,7.08
2023-03-02T16:14:05.871Z,7.32
2023-03-02T16:16:37.616Z,7.22
2023-03-02T16:19:15.276Z,7.30
2023-03-02T16:22:09.994Z,7.28
2023-03-02T16:24:47.024Z,7.42
2023-03-02T16:27:29.398Z,7.59
2023-03-02T16:30:04.306Z,7.71
2023-03-02T16:32:40.139Z,7.65
2023-03-02T16:35:16.749Z,7.61
2023-03-02T16:37:52.441Z,7.43
2023-03-02T16:40:26.625Z,7.47
2023-03-02T16:43:11.316Z,7.47
2023-03-02T16:45:45.864Z,7.28
2023-03-02T16:48:18.737Z,7.13
2023-03-02T16:51:10.945Z,7.29
2023-03-02T16:53:52.225Z,7.46
2023-03-02T16:56:35.782Z,7.38
2023-03-02T16:59:08.560Z,7.34
2023-03-02T17:01:46.638Z,7.42
2023-03-02T17:04:18.690Z,7.52
2023-03-02T17:07:00.551Z,7.42
2023-03-02T17:09:36.745Z,7.24
2023-03-02T17:12:12.838Z,7.04
2023-03-02T17:15:03.230Z,7.15
2023-03-02T17:17:38.337Z,6.92
2023-03-02T17:20:30.529Z,6.61
2023-03-02T17:23:02.192Z,6.75
2023-03-02T17:25:32.077Z,6.77
2023-03-02T17:28:03.297Z,6.89
2023-03-02T17:30:37.073Z,6.62
2023-03-02T17:33:08.130Z,6.90
2023-03-02T17:35:50.172Z,6.95
2023-03-02T17:38:21.360Z,6.86
2023-03-02T17:40:53.935Z,6.74
2023-03-02T17:43:23.251Z,6.57
2023-03-02T17:45:53.563Z,6.62
2023-03-02T17:48:27.006Z,7.00
2023-03-02T17:50:58.423Z,6.96
2023-03-02T17:53:28.657Z,7.15
2023-03-02T17:55:59.247Z,7.08
2023-03-02T17:58:42.844Z,7.02
2023-03-02T18:01:16.144Z,7.07
2023-03-02T18:03:52.074Z,6.95
2023-03-02T18:06:23.232Z,6.94
2023-03-02T18:08:53.888Z,7.07
2023-03-02T18:11:30.461Z,7.03
2023-03-02T18:14:00.776Z,7.12
2023-03-02T18:16:37.554Z,7.03
2023-03-02T18:19:10.630Z,7.04
2023-03-02T18:21:42.060Z,6.98
2023-03-02T18:24:12.186Z,6.82
2023-03-02T18:26:44.758Z,6.90
2023-03-02T18:29:35.796Z,6.97
2023-03-02T18:32:08.508Z,7.01
2023-03-02T18:34:40.069Z,7.14
2023-03-02T18:37:11.076Z,7.13
2023-03-02T18:39:46.384Z,6.97
2023-03-02T18:42:18.121Z,6.73
2023-03-02T18:44:50.293Z,6.64
2023-03-02T18:47:27.981Z,6.68
2023-03-02T18:50:05.712Z,6.81
2023-03-02T18:52:37.170Z,6.93
2023-03-02T18:55:10.272Z,7.13
2023-03-02T18:57:41.808Z,7.22
2023-03-02T19:00:20.213Z,7.33
2023-03-02T19:02:50.183Z,7.28
2023-03-02T19:05:34.752Z,7.22
2023-03-02T19:08:10.050Z,7.11
2023-03-02T19:10:43.249Z,6.95
2023-03-02T19:13:12.620Z,6.84
2023-03-02T19:15:44.672Z,6.98
2023-03-02T19:18:18.070Z,6.95
2023-03-02T19:20:52.370Z,7.01
2023-03-02T19:23:22.896Z,7.04
2023-03-02T19:25:52.922Z,6.99
2023-03-02T19:28:26.526Z,7.00
2023-03-02T19:30:57.384Z,6.89
2023-03-02T19:33:32.050Z,6.85
2023-03-02T19:36:04.589Z,6.82
2023-03-02T19:38:41.847Z,6.86
2023-03-02T19:41:16.132Z,6.80
2023-03-02T19:43:48.155Z,6.76
2023-03-02T19:46:20.900Z,6.49
2023-03-02T19:48:52.313Z,6.32
2023-03-02T19:51:22.910Z,6.15
2023-03-02T19:53:52.889Z,5.69
2023-03-02T19:56:29.868Z,5.38
2023-03-02T19:59:22.174Z,5.72
2023-03-02T20:01:53.060Z,5.94
2023-03-02T20:04:23.534Z,6.07
2023-03-02T20:06:59.932Z,6.18
2023-03-02T20:09:36.174Z,5.98
2023-03-02T20:12:11.146Z,5.95
2023-03-02T20:14:44.593Z,5.65
2023-03-02T20:17:18.217Z,5.49
2023-03-02T20:19:50.873Z,5.36
2023-03-02T20:22:26.140Z,5.53
2023-03-02T20:24:59.132Z,5.72
2023-03-02T20:27:30.380Z,5.76
2023-03-02T20:29:59.611Z,5.65
2023-03-02T20:32:31.356Z,5.33
2023-03-02T20:35:20.390Z,5.36
2023-03-02T20:37:56.574Z,5.35
2023-03-02T20:40:28.365Z,5.24
2023-03-02T20:43:09.135Z,5.34
2023-03-02T20:45:39.349Z,5.43
2023-03-02T20:48:11.020Z,5.22
2023-03-02T20:50:50.589Z,5.28
2023-03-02T20:53:20.535Z,5.08
2023-03-02T20:55:51.127Z,4.95
2023-03-02T20:58:21.124Z,4.99
2023-03-02T21:00:50.760Z,5.10
2023-03-02T21:03:20.794Z,5.10
2023-03-02T21:05:53.826Z,5.17
2023-03-02T21:08:23.500Z,5.25
2023-03-02T21:10:52.640Z,5.27
2023-03-02T21:13:22.789Z,5.36
2023-03-02T21:15:52.649Z,5.43
2023-03-02T21:18:27.705Z,5.16
2023-03-02T21:21:01.100Z,5.09
2023-03-02T21:23:35.430Z,5.13
2023-03-02T21:26:08.163Z,5.17
2023-03-02T21:28:39.293Z,5.04
2023-03-02T21:31:09.700Z,4.94
2023-03-02T21:33:40.347Z,4.66
2023-03-02T21:36:20.066Z,4.65
2023-03-02T21:38:52.704Z,4.63
2023-03-02T21:41:30.201Z,4.72
2023-03-02T21:44:00.987Z,4.80
2023-03-02T21:46:34.115Z,4.64
2023-03-02T21:49:05.530Z,4.51
2023-03-02T21:51:35.175Z,4.69
2023-03-02T21:54:05.561Z,4.85
2023-03-02T21:56:36.008Z,4.74
2023-03-02T21:59:06.073Z,4.61
2023-03-02T22:01:38.522Z,4.56
2023-03-02T22:04:12.980Z,4.42
2023-03-02T22:06:42.870Z,4.56
2023-03-02T22:09:13.090Z,4.57
2023-03-02T22:11:45.548Z,4.48
2023-03-02T22:14:18.488Z,4.47
2023-03-02T22:16:53.029Z,4.51
2023-03-02T22:19:31.033Z,4.78
2023-03-02T22:22:04.186Z,4.70
2023-03-02T22:24:46.749Z,4.64
2023-03-02T22:27:31.223Z,4.76
2023-03-02T22:30:03.482Z,4.61
2023-03-02T22:32:41.045Z,4.55
2023-03-02T22:35:24.419Z,4.81
2023-03-02T22:38:03.057Z,4.92
2023-03-02T22:40:35.111Z,4.88
2023-03-02T22:43:15.412Z,5.05
2023-03-02T22:45:46.224Z,5.03
2023-03-02T22:48:19.437Z,4.77
2023-03-02T22:50:50.722Z,4.76
2023-03-02T22:53:43.779Z,4.72
2023-03-02T22:56:42.654Z,4.78
2023-03-02T22:59:21.267Z,4.89
2023-03-02T23:01:51.721Z,4.65
2023-03-02T23:04:38.069Z,4.64
2023-03-02T23:07:18.738Z,4.98
2023-03-02T23:09:49.943Z,4.92
2023-03-02T23:12:26.598Z,4.86
2023-03-02T23:14:58.164Z,4.97
2023-03-02T23:17:40.861Z,5.07
2023-03-02T23:20:30.143Z,5.12
2023-03-02T23:23:04.318Z,5.14
2023-03-02T23:25:33.288Z,5.23
2023-03-02T23:28:03.014Z,4.96
2023-03-02T23:30:31.982Z,4.90
2023-03-02T23:33:02.957Z,4.75
2023-03-02T23:35:32.889Z,4.60
2023-03-02T23:38:02.000Z,4.50
2023-03-02T23:40:31.396Z,4.27
2023-03-02T23:43:00.377Z,4.50
2023-03-02T23:45:30.130Z,4.56
2023-03-02T23:47:59.479Z,4.67
2023-03-02T23:50:28.613Z,4.87
2023-03-02T23:52:58.670Z,5.04
2023-03-02T23:55:28.426Z,4.97
2023-03-02T23:57:58.383Z,4.89
